サルタ の空港の天気 - METARとTAF

サルタ空港 ( SASA / SLA ) - アルゼンチン サルタ州、Salta
飛行場実況気象(Metar)
観測時間10/20 01:00 ART (10/20 04:00 UTC)
風向・風速北西 1m/s
視程10km以上
天気現象
全天の8割程度の雲 雲底高度 610m
全天の4割程度の雲 雲底高度 3050m
気温14℃
湿度82%
気圧1018hPa
METARSASA 200400Z 32002KT 9999 BKN020 SCT100 14/11 Q1018
過去の天気等 Google飛行場航空写真 Wunderground天気予報

過去48時間のMETAR

飛行場予報(TAF)
発表時間: 10/19 20:00 ART (10/19 23:00 UTC)
予報対象時間: 19日21時 ART ~ 20日21時 ART
風向・風速北北東 3m/s
視程10km以上
全天の8割程度の雲 雲底高度 910m
少しの塔状積雲 雲底高度 1220m
20日4時 ART ~ 20日7時 ART に一時的に
風向・風速不定 1m/s
視程5000m
天気現象もや
全天の8割程度の雲 雲底高度 300m
TAF SASA 192300Z 2000/2024 02005KT 9999 BKN030 FEW040TCU TX23/2018Z TN12/2010Z
TEMPO 2007/2010 VRB02KT 5000 BR BKN010